Pagrindinis puslapis
METAR-TAF:

METAR-TAF

Oro uostai :

Gaziantepas, Turkija

platuma: 37-05N, ilguma: 037-22E, Aukštis: 701 m

Dabartinis oras

Ataskaita buvo paskelbta 47 minutes, ne 19:50 UTC
Ramus vėjas
Temperatūra 8°C
Drėgmė 87%
Slėgis 1021 hPa
Matomumas 10 km arba daugiau
Išsisklaidę debesys ne aukštis 1500 ft
Su prošvaistėmis ne aukštis 8000 ft

METAR: LTAJ 151950Z 00000KT 9999 SCT015 BKN080 08/06 Q1021 NOSIG RMK RWY10 VRB02KT

Laikas: 23:37 (20:37 UTC)

Prognozė

Ataskaita buvo paskelbta 3 valandos ir 57 minutes, ne 16:40 UTC
Prognozė galioja nuo 15 metu 18 UTC su 16 metu 18 UTC
Vėjas 6 kt iš Šiaurės
Matomumas 10 km arba daugiau
Išsisklaidę debesys ne aukštis 3000 ft
Tapsmas
nuo 15 metu 22 UTC su 15 metu 24 UTC
Matomumas 10 km arba daugiau
nėra debesų žemiau 1500 m ir nėra kamuolinių lietaus debesų
Tikimybė 40% :
Laikinai
nuo 16 metu 00 UTC su 16 metu 04 UTC
Matomumas: 2000 m
rūkana

TAF: LTAJ 151640Z 1518/1618 36006KT 9999 SCT030 BECMG 1522/1524 CAVOK PROB40 TEMPO 1600/1604 2000 BR

Orai ataskaitas ir orų prognozės (METAR, TAF).

turimą stotys yra geltonos ir raudonos taškus žemėlapyje.

Perkelti pele per norėdami pamatyti stoties vardą.

Tada spustelėkite, norėdami matyti oro stebėjimo ir prognozės.

Norėdami pakeisti žemėlapį: spustelėkite ant žalios mygtukų su juodo kryžiaus žemyn,; žalią mygtuką su brūkšneliu, jei norite nutolinti; arba žalių rodyklių gretimoms žemėlapius.


METAR-TAF: